sensor_id;sensor_type;location;lat;lon;timestamp;P1;durP1;ratioP1;P2;durP2;ratioP2
65279;SDS011;51878;55.748;48.742;2022-08-19T00:01:47;8.07;;;2.80;;
65279;SDS011;51878;55.748;48.742;2022-08-19T00:04:19;4.60;;;2.47;;
65279;SDS011;51878;55.748;48.742;2022-08-19T00:06:50;5.78;;;2.33;;
65279;SDS011;51878;55.748;48.742;2022-08-19T00:09:19;8.70;;;2.40;;
65279;SDS011;51878;55.748;48.742;2022-08-19T00:11:47;7.85;;;2.47;;
65279;SDS011;51878;55.748;48.742;2022-08-19T00:14:15;6.70;;;2.38;;
65279;SDS011;51878;55.748;48.742;2022-08-19T00:16:44;6.05;;;2.17;;
65279;SDS011;51878;55.748;48.742;2022-08-19T00:19:25;5.70;;;2.42;;
65279;SDS011;51878;55.748;48.742;2022-08-19T00:21:53;9.60;;;2.45;;
65279;SDS011;51878;55.748;48.742;2022-08-19T00:24:21;7.57;;;2.60;;
65279;SDS011;51878;55.748;48.742;2022-08-19T00:26:49;3.42;;;2.10;;
65279;SDS011;51878;55.748;48.742;2022-08-19T00:29:18;4.55;;;2.28;;
65279;SDS011;51878;55.748;48.742;2022-08-19T00:31:46;2.28;;;2.00;;
65279;SDS011;51878;55.748;48.742;2022-08-19T00:34:16;9.70;;;2.53;;
65279;SDS011;51878;55.748;48.742;2022-08-19T00:36:43;8.10;;;2.13;;
65279;SDS011;51878;55.748;48.742;2022-08-19T00:39:11;11.48;;;2.33;;
65279;SDS011;51878;55.748;48.742;2022-08-19T00:41:39;9.43;;;2.30;;
65279;SDS011;51878;55.748;48.742;2022-08-19T00:44:11;8.35;;;2.20;;
65279;SDS011;51878;55.748;48.742;2022-08-19T00:46:53;6.75;;;2.17;;
65279;SDS011;51878;55.748;48.742;2022-08-19T00:49:25;3.65;;;2.40;;
65279;SDS011;51878;55.748;48.742;2022-08-19T00:52:04;6.03;;;2.30;;
65279;SDS011;51878;55.748;48.742;2022-08-19T00:54:36;12.52;;;3.08;;
65279;SDS011;51878;55.748;48.742;2022-08-19T00:57:07;3.28;;;2.10;;
65279;SDS011;51878;55.748;48.742;2022-08-19T00:59:38;5.47;;;2.30;;
65279;SDS011;51878;55.748;48.742;2022-08-19T01:02:19;5.38;;;2.45;;
65279;SDS011;51878;55.748;48.742;2022-08-19T01:04:46;3.67;;;2.25;;
65279;SDS011;51878;55.748;48.742;2022-08-19T01:07:13;4.55;;;2.30;;
65279;SDS011;51878;55.748;48.742;2022-08-19T01:09:42;5.85;;;2.10;;
65279;SDS011;51878;55.748;48.742;2022-08-19T01:12:10;4.43;;;2.30;;
65279;SDS011;51878;55.748;48.742;2022-08-19T01:14:37;4.32;;;2.00;;
65279;SDS011;51878;55.748;48.742;2022-08-19T01:17:09;5.40;;;2.30;;
65279;SDS011;51878;55.748;48.742;2022-08-19T01:19:39;6.78;;;2.35;;
65279;SDS011;51878;55.748;48.742;2022-08-19T01:24:46;9.80;;;2.50;;
65279;SDS011;51878;55.748;48.742;2022-08-19T01:27:15;4.03;;;2.45;;
65279;SDS011;51878;55.748;48.742;2022-08-19T01:29:43;4.90;;;2.33;;
65279;SDS011;51878;55.748;48.742;2022-08-19T01:32:13;4.97;;;2.33;;
65279;SDS011;51878;55.748;48.742;2022-08-19T01:34:46;7.00;;;2.58;;
65279;SDS011;51878;55.748;48.742;2022-08-19T01:37:14;6.65;;;2.47;;
65279;SDS011;51878;55.748;48.742;2022-08-19T01:39:41;4.75;;;2.17;;
65279;SDS011;51878;55.748;48.742;2022-08-19T01:42:09;3.38;;;2.25;;
65279;SDS011;51878;55.748;48.742;2022-08-19T01:44:39;3.50;;;1.98;;
65279;SDS011;51878;55.748;48.742;2022-08-19T01:49:53;11.48;;;2.50;;
65279;SDS011;51878;55.748;48.742;2022-08-19T01:52:20;7.68;;;2.15;;
65279;SDS011;51878;55.748;48.742;2022-08-19T01:54:47;8.90;;;2.10;;
65279;SDS011;51878;55.748;48.742;2022-08-19T01:57:33;3.58;;;2.03;;
65279;SDS011;51878;55.748;48.742;2022-08-19T02:00:01;3.97;;;2.40;;
65279;SDS011;51878;55.748;48.742;2022-08-19T02:02:53;5.32;;;2.40;;
65279;SDS011;51878;55.748;48.742;2022-08-19T02:05:20;4.35;;;2.20;;
65279;SDS011;51878;55.748;48.742;2022-08-19T02:16:27;3.35;;;2.03;;
65279;SDS011;51878;55.748;48.742;2022-08-19T02:19:07;4.07;;;1.92;;
65279;SDS011;51878;55.748;48.742;2022-08-19T02:21:34;9.23;;;2.28;;
65279;SDS011;51878;55.748;48.742;2022-08-19T02:24:01;5.72;;;2.30;;
65279;SDS011;51878;55.748;48.742;2022-08-19T02:26:29;4.93;;;2.35;;
65279;SDS011;51878;55.748;48.742;2022-08-19T02:28:56;3.67;;;2.10;;
65279;SDS011;51878;55.748;48.742;2022-08-19T02:31:24;3.42;;;1.70;;
65279;SDS011;51878;55.748;48.742;2022-08-19T02:33:55;6.82;;;2.33;;
65279;SDS011;51878;55.748;48.742;2022-08-19T02:36:23;4.63;;;2.20;;
65279;SDS011;51878;55.748;48.742;2022-08-19T02:38:52;3.78;;;2.50;;
65279;SDS011;51878;55.748;48.742;2022-08-19T02:41:22;4.60;;;2.00;;
65279;SDS011;51878;55.748;48.742;2022-08-19T02:43:55;3.15;;;1.98;;
65279;SDS011;51878;55.748;48.742;2022-08-19T02:46:45;5.82;;;2.08;;
65279;SDS011;51878;55.748;48.742;2022-08-19T02:49:13;4.38;;;2.20;;
65279;SDS011;51878;55.748;48.742;2022-08-19T02:51:45;3.63;;;2.35;;
65279;SDS011;51878;55.748;48.742;2022-08-19T02:54:13;4.07;;;2.20;;
65279;SDS011;51878;55.748;48.742;2022-08-19T02:56:41;4.25;;;2.13;;
65279;SDS011;51878;55.748;48.742;2022-08-19T02:59:10;6.60;;;2.00;;
65279;SDS011;51878;55.748;48.742;2022-08-19T03:01:39;8.93;;;2.40;;
65279;SDS011;51878;55.748;48.742;2022-08-19T03:04:25;4.40;;;1.95;;
65279;SDS011;51878;55.748;48.742;2022-08-19T03:06:52;4.95;;;2.00;;
65279;SDS011;51878;55.748;48.742;2022-08-19T03:09:22;6.03;;;2.50;;
65279;SDS011;51878;55.748;48.742;2022-08-19T03:11:50;6.40;;;2.13;;
65279;SDS011;51878;55.748;48.742;2022-08-19T03:14:23;8.25;;;1.98;;
65279;SDS011;51878;55.748;48.742;2022-08-19T03:16:51;6.10;;;2.25;;
65279;SDS011;51878;55.748;48.742;2022-08-19T03:19:19;3.97;;;1.85;;
65279;SDS011;51878;55.748;48.742;2022-08-19T03:21:47;6.55;;;1.85;;
65279;SDS011;51878;55.748;48.742;2022-08-19T03:24:16;9.10;;;1.90;;
65279;SDS011;51878;55.748;48.742;2022-08-19T03:26:47;4.03;;;1.80;;
65279;SDS011;51878;55.748;48.742;2022-08-19T03:29:18;2.67;;;1.65;;
65279;SDS011;51878;55.748;48.742;2022-08-19T03:31:56;4.13;;;1.90;;
65279;SDS011;51878;55.748;48.742;2022-08-19T03:37:13;7.05;;;2.13;;
65279;SDS011;51878;55.748;48.742;2022-08-19T03:39:40;4.20;;;2.10;;
65279;SDS011;51878;55.748;48.742;2022-08-19T03:42:09;7.70;;;1.80;;
65279;SDS011;51878;55.748;48.742;2022-08-19T03:44:56;7.28;;;2.30;;
65279;SDS011;51878;55.748;48.742;2022-08-19T03:47:24;4.25;;;1.90;;
65279;SDS011;51878;55.748;48.742;2022-08-19T03:49:52;6.03;;;2.08;;
65279;SDS011;51878;55.748;48.742;2022-08-19T03:52:19;4.45;;;1.90;;
65279;SDS011;51878;55.748;48.742;2022-08-19T03:54:46;8.88;;;2.10;;
65279;SDS011;51878;55.748;48.742;2022-08-19T03:57:13;4.97;;;2.10;;
65279;SDS011;51878;55.748;48.742;2022-08-19T03:59:40;5.20;;;1.80;;
65279;SDS011;51878;55.748;48.742;2022-08-19T04:02:09;5.13;;;1.73;;
65279;SDS011;51878;55.748;48.742;2022-08-19T04:04:38;2.45;;;1.60;;
65279;SDS011;51878;55.748;48.742;2022-08-19T04:07:06;6.75;;;1.70;;
65279;SDS011;51878;55.748;48.742;2022-08-19T04:09:35;4.13;;;1.67;;
65279;SDS011;51878;55.748;48.742;2022-08-19T04:12:03;3.42;;;1.90;;
65279;SDS011;51878;55.748;48.742;2022-08-19T04:14:32;5.97;;;1.90;;
65279;SDS011;51878;55.748;48.742;2022-08-19T04:17:01;3.78;;;1.40;;
65279;SDS011;51878;55.748;48.742;2022-08-19T04:19:32;5.93;;;1.67;;
65279;SDS011;51878;55.748;48.742;2022-08-19T04:22:01;8.95;;;1.80;;
65279;SDS011;51878;55.748;48.742;2022-08-19T04:24:29;3.42;;;1.67;;
65279;SDS011;51878;55.748;48.742;2022-08-19T04:26:58;3.97;;;1.70;;
65279;SDS011;51878;55.748;48.742;2022-08-19T04:29:26;5.68;;;1.70;;
65279;SDS011;51878;55.748;48.742;2022-08-19T04:31:54;12.13;;;2.05;;
65279;SDS011;51878;55.748;48.742;2022-08-19T04:34:23;7.13;;;1.83;;
65279;SDS011;51878;55.748;48.742;2022-08-19T04:36:53;29.92;;;19.58;;
65279;SDS011;51878;55.748;48.742;2022-08-19T04:39:25;13.02;;;6.70;;
65279;SDS011;51878;55.748;48.742;2022-08-19T04:42:13;12.65;;;4.28;;
65279;SDS011;51878;55.748;48.742;2022-08-19T04:45:00;5.00;;;2.08;;
65279;SDS011;51878;55.748;48.742;2022-08-19T04:47:30;8.80;;;2.00;;
65279;SDS011;51878;55.748;48.742;2022-08-19T04:50:13;18.75;;;3.53;;
65279;SDS011;51878;55.748;48.742;2022-08-19T04:52:41;5.32;;;1.92;;
65279;SDS011;51878;55.748;48.742;2022-08-19T04:55:09;21.38;;;2.80;;
65279;SDS011;51878;55.748;48.742;2022-08-19T04:57:38;8.93;;;2.30;;
65279;SDS011;51878;55.748;48.742;2022-08-19T05:00:08;15.05;;;2.20;;
65279;SDS011;51878;55.748;48.742;2022-08-19T05:02:37;21.02;;;2.13;;
65279;SDS011;51878;55.748;48.742;2022-08-19T05:05:04;11.55;;;2.47;;
65279;SDS011;51878;55.748;48.742;2022-08-19T05:07:33;6.97;;;1.95;;
65279;SDS011;51878;55.748;48.742;2022-08-19T05:10:01;9.20;;;2.08;;
65279;SDS011;51878;55.748;48.742;2022-08-19T05:12:29;9.05;;;1.98;;
65279;SDS011;51878;55.748;48.742;2022-08-19T05:14:57;9.68;;;2.00;;
65279;SDS011;51878;55.748;48.742;2022-08-19T05:17:25;15.02;;;3.08;;
65279;SDS011;51878;55.748;48.742;2022-08-19T05:19:56;16.17;;;2.40;;
65279;SDS011;51878;55.748;48.742;2022-08-19T05:22:43;6.50;;;1.98;;
65279;SDS011;51878;55.748;48.742;2022-08-19T05:25:13;4.97;;;1.90;;
65279;SDS011;51878;55.748;48.742;2022-08-19T05:27:45;9.88;;;2.40;;
65279;SDS011;51878;55.748;48.742;2022-08-19T05:30:13;19.00;;;2.10;;
65279;SDS011;51878;55.748;48.742;2022-08-19T05:32:40;12.13;;;2.33;;
65279;SDS011;51878;55.748;48.742;2022-08-19T05:35:08;13.52;;;2.30;;
65279;SDS011;51878;55.748;48.742;2022-08-19T05:37:36;23.85;;;2.60;;
65279;SDS011;51878;55.748;48.742;2022-08-19T05:40:03;10.88;;;2.47;;
65279;SDS011;51878;55.748;48.742;2022-08-19T05:42:31;5.03;;;1.77;;
65279;SDS011;51878;55.748;48.742;2022-08-19T05:44:58;23.42;;;3.00;;
65279;SDS011;51878;55.748;48.742;2022-08-19T05:47:28;31.02;;;2.92;;
65279;SDS011;51878;55.748;48.742;2022-08-19T05:49:55;40.22;;;2.72;;
65279;SDS011;51878;55.748;48.742;2022-08-19T05:52:23;20.10;;;2.17;;
65279;SDS011;51878;55.748;48.742;2022-08-19T05:54:51;21.48;;;2.35;;
65279;SDS011;51878;55.748;48.742;2022-08-19T05:57:22;18.90;;;2.40;;
65279;SDS011;51878;55.748;48.742;2022-08-19T06:00:01;14.27;;;2.13;;
65279;SDS011;51878;55.748;48.742;2022-08-19T06:02:39;11.80;;;2.40;;
65279;SDS011;51878;55.748;48.742;2022-08-19T06:05:08;15.02;;;2.25;;
65279;SDS011;51878;55.748;48.742;2022-08-19T06:07:41;7.40;;;1.93;;
65279;SDS011;51878;55.748;48.742;2022-08-19T06:10:09;18.23;;;2.58;;
65279;SDS011;51878;55.748;48.742;2022-08-19T06:12:38;11.00;;;2.33;;
65279;SDS011;51878;55.748;48.742;2022-08-19T06:15:07;18.88;;;2.25;;
65279;SDS011;51878;55.748;48.742;2022-08-19T06:17:36;19.00;;;3.00;;
65279;SDS011;51878;55.748;48.742;2022-08-19T06:20:05;16.48;;;2.38;;
65279;SDS011;51878;55.748;48.742;2022-08-19T06:22:37;10.82;;;2.30;;
65279;SDS011;51878;55.748;48.742;2022-08-19T06:25:10;13.57;;;2.20;;
65279;SDS011;51878;55.748;48.742;2022-08-19T06:27:38;11.15;;;2.42;;
65279;SDS011;51878;55.748;48.742;2022-08-19T06:30:24;11.55;;;2.05;;
65279;SDS011;51878;55.748;48.742;2022-08-19T06:32:51;17.63;;;2.40;;
65279;SDS011;51878;55.748;48.742;2022-08-19T06:35:19;27.08;;;3.03;;
65279;SDS011;51878;55.748;48.742;2022-08-19T06:37:46;22.83;;;2.42;;
65279;SDS011;51878;55.748;48.742;2022-08-19T06:40:13;13.90;;;2.72;;
65279;SDS011;51878;55.748;48.742;2022-08-19T06:42:40;9.95;;;2.55;;
65279;SDS011;51878;55.748;48.742;2022-08-19T06:45:09;19.00;;;2.45;;
65279;SDS011;51878;55.748;48.742;2022-08-19T06:47:37;22.05;;;2.55;;
65279;SDS011;51878;55.748;48.742;2022-08-19T06:50:04;11.05;;;2.10;;
65279;SDS011;51878;55.748;48.742;2022-08-19T06:52:34;12.02;;;2.20;;
65279;SDS011;51878;55.748;48.742;2022-08-19T06:55:04;19.63;;;2.70;;
65279;SDS011;51878;55.748;48.742;2022-08-19T06:57:32;26.73;;;2.70;;
65279;SDS011;51878;55.748;48.742;2022-08-19T07:00:00;26.25;;;2.70;;
65279;SDS011;51878;55.748;48.742;2022-08-19T07:02:28;20.25;;;2.50;;
65279;SDS011;51878;55.748;48.742;2022-08-19T07:04:56;11.70;;;2.65;;
65279;SDS011;51878;55.748;48.742;2022-08-19T07:07:29;27.30;;;2.63;;
65279;SDS011;51878;55.748;48.742;2022-08-19T07:09:58;19.33;;;2.60;;
65279;SDS011;51878;55.748;48.742;2022-08-19T07:12:29;14.15;;;2.65;;
65279;SDS011;51878;55.748;48.742;2022-08-19T07:15:03;23.23;;;3.17;;
65279;SDS011;51878;55.748;48.742;2022-08-19T07:17:30;45.55;;;3.75;;
65279;SDS011;51878;55.748;48.742;2022-08-19T07:19:59;28.42;;;3.83;;
65279;SDS011;51878;55.748;48.742;2022-08-19T07:22:31;38.65;;;3.47;;
65279;SDS011;51878;55.748;48.742;2022-08-19T07:24:59;24.85;;;3.25;;
65279;SDS011;51878;55.748;48.742;2022-08-19T07:27:26;23.00;;;2.80;;
65279;SDS011;51878;55.748;48.742;2022-08-19T07:29:53;15.90;;;3.58;;
65279;SDS011;51878;55.748;48.742;2022-08-19T07:32:26;22.77;;;2.88;;
65279;SDS011;51878;55.748;48.742;2022-08-19T07:34:53;17.83;;;3.05;;
65279;SDS011;51878;55.748;48.742;2022-08-19T07:37:24;19.48;;;3.10;;
65279;SDS011;51878;55.748;48.742;2022-08-19T07:39:58;14.43;;;3.08;;
65279;SDS011;51878;55.748;48.742;2022-08-19T07:42:25;17.38;;;2.72;;
65279;SDS011;51878;55.748;48.742;2022-08-19T07:44:53;25.20;;;2.83;;
65279;SDS011;51878;55.748;48.742;2022-08-19T07:47:20;13.00;;;2.72;;
65279;SDS011;51878;55.748;48.742;2022-08-19T07:50:08;11.25;;;2.20;;
65279;SDS011;51878;55.748;48.742;2022-08-19T07:52:37;30.73;;;3.45;;
65279;SDS011;51878;55.748;48.742;2022-08-19T07:55:07;16.90;;;3.08;;
65279;SDS011;51878;55.748;48.742;2022-08-19T07:57:38;19.15;;;2.90;;
65279;SDS011;51878;55.748;48.742;2022-08-19T08:00:06;7.45;;;2.40;;
65279;SDS011;51878;55.748;48.742;2022-08-19T08:02:34;16.02;;;2.58;;
65279;SDS011;51878;55.748;48.742;2022-08-19T08:05:01;38.83;;;3.30;;
65279;SDS011;51878;55.748;48.742;2022-08-19T08:07:47;18.20;;;2.92;;
65279;SDS011;51878;55.748;48.742;2022-08-19T08:10:33;19.25;;;2.67;;
65279;SDS011;51878;55.748;48.742;2022-08-19T08:13:00;21.80;;;2.75;;
65279;SDS011;51878;55.748;48.742;2022-08-19T08:15:31;11.43;;;2.75;;
65279;SDS011;51878;55.748;48.742;2022-08-19T08:17:58;23.63;;;2.90;;
65279;SDS011;51878;55.748;48.742;2022-08-19T08:20:26;8.90;;;2.40;;
65279;SDS011;51878;55.748;48.742;2022-08-19T08:22:53;12.95;;;2.40;;
65279;SDS011;51878;55.748;48.742;2022-08-19T08:25:38;11.82;;;2.60;;
65279;SDS011;51878;55.748;48.742;2022-08-19T08:28:05;13.68;;;2.65;;
65279;SDS011;51878;55.748;48.742;2022-08-19T08:30:34;7.68;;;2.30;;
65279;SDS011;51878;55.748;48.742;2022-08-19T08:33:03;8.52;;;2.42;;
65279;SDS011;51878;55.748;48.742;2022-08-19T08:35:34;23.15;;;2.92;;
65279;SDS011;51878;55.748;48.742;2022-08-19T08:38:02;11.23;;;2.42;;
65279;SDS011;51878;55.748;48.742;2022-08-19T08:43:34;10.50;;;2.03;;
65279;SDS011;51878;55.748;48.742;2022-08-19T08:54:50;13.45;;;2.35;;
65279;SDS011;51878;55.748;48.742;2022-08-19T09:00:06;21.20;;;2.38;;
65279;SDS011;51878;55.748;48.742;2022-08-19T09:02:40;4.80;;;2.30;;
65279;SDS011;51878;55.748;48.742;2022-08-19T09:05:09;26.17;;;2.78;;
65279;SDS011;51878;55.748;48.742;2022-08-19T09:07:49;15.55;;;2.40;;
65279;SDS011;51878;55.748;48.742;2022-08-19T09:16:16;10.77;;;2.47;;
65279;SDS011;51878;55.748;48.742;2022-08-19T09:18:57;7.07;;;2.00;;
65279;SDS011;51878;55.748;48.742;2022-08-19T09:21:28;11.23;;;2.40;;
65279;SDS011;51878;55.748;48.742;2022-08-19T09:23:58;5.30;;;2.08;;
65279;SDS011;51878;55.748;48.742;2022-08-19T09:26:26;7.25;;;2.22;;
65279;SDS011;51878;55.748;48.742;2022-08-19T09:28:55;13.07;;;2.17;;
65279;SDS011;51878;55.748;48.742;2022-08-19T09:31:24;7.43;;;2.10;;
65279;SDS011;51878;55.748;48.742;2022-08-19T09:33:53;9.70;;;2.20;;
65279;SDS011;51878;55.748;48.742;2022-08-19T09:36:24;9.93;;;2.38;;
65279;SDS011;51878;55.748;48.742;2022-08-19T09:38:56;7.30;;;2.20;;
65279;SDS011;51878;55.748;48.742;2022-08-19T09:41:24;8.18;;;2.08;;
65279;SDS011;51878;55.748;48.742;2022-08-19T09:43:54;10.55;;;1.90;;
65279;SDS011;51878;55.748;48.742;2022-08-19T09:46:24;8.90;;;2.60;;
65279;SDS011;51878;55.748;48.742;2022-08-19T09:48:53;9.27;;;2.15;;
65279;SDS011;51878;55.748;48.742;2022-08-19T09:51:24;3.40;;;2.10;;
65279;SDS011;51878;55.748;48.742;2022-08-19T09:53:54;7.65;;;2.35;;
65279;SDS011;51878;55.748;48.742;2022-08-19T09:56:25;10.48;;;2.25;;
65279;SDS011;51878;55.748;48.742;2022-08-19T09:58:53;10.32;;;2.58;;
65279;SDS011;51878;55.748;48.742;2022-08-19T10:01:21;7.22;;;2.17;;
65279;SDS011;51878;55.748;48.742;2022-08-19T10:03:54;6.63;;;2.20;;
65279;SDS011;51878;55.748;48.742;2022-08-19T10:06:45;9.98;;;2.25;;
65279;SDS011;51878;55.748;48.742;2022-08-19T10:09:17;12.68;;;2.40;;
65279;SDS011;51878;55.748;48.742;2022-08-19T10:11:51;6.82;;;2.55;;
65279;SDS011;51878;55.748;48.742;2022-08-19T10:14:20;6.82;;;2.20;;
65279;SDS011;51878;55.748;48.742;2022-08-19T10:16:50;7.82;;;2.30;;
65279;SDS011;51878;55.748;48.742;2022-08-19T10:19:18;12.18;;;2.40;;
65279;SDS011;51878;55.748;48.742;2022-08-19T10:21:51;11.25;;;2.30;;
65279;SDS011;51878;55.748;48.742;2022-08-19T10:24:21;5.20;;;2.10;;
65279;SDS011;51878;55.748;48.742;2022-08-19T10:26:51;8.23;;;2.35;;
65279;SDS011;51878;55.748;48.742;2022-08-19T10:29:21;8.52;;;2.17;;
65279;SDS011;51878;55.748;48.742;2022-08-19T10:31:59;14.55;;;2.20;;
65279;SDS011;51878;55.748;48.742;2022-08-19T10:34:29;10.55;;;2.58;;
65279;SDS011;51878;55.748;48.742;2022-08-19T10:36:57;8.05;;;2.05;;
65279;SDS011;51878;55.748;48.742;2022-08-19T10:39:28;7.38;;;2.10;;
65279;SDS011;51878;55.748;48.742;2022-08-19T10:41:58;7.55;;;2.03;;
65279;SDS011;51878;55.748;48.742;2022-08-19T10:44:25;12.10;;;2.30;;
65279;SDS011;51878;55.748;48.742;2022-08-19T10:46:57;6.20;;;1.90;;
65279;SDS011;51878;55.748;48.742;2022-08-19T10:49:25;7.15;;;2.15;;
65279;SDS011;51878;55.748;48.742;2022-08-19T10:51:53;13.02;;;2.28;;
65279;SDS011;51878;55.748;48.742;2022-08-19T10:54:42;3.65;;;2.00;;
65279;SDS011;51878;55.748;48.742;2022-08-19T10:57:30;9.13;;;2.53;;
65279;SDS011;51878;55.748;48.742;2022-08-19T11:00:18;6.70;;;2.20;;
65279;SDS011;51878;55.748;48.742;2022-08-19T11:02:47;10.77;;;2.50;;
65279;SDS011;51878;55.748;48.742;2022-08-19T11:05:14;6.45;;;1.75;;
65279;SDS011;51878;55.748;48.742;2022-08-19T11:07:43;9.32;;;2.38;;
65279;SDS011;51878;55.748;48.742;2022-08-19T11:10:12;5.97;;;2.00;;
65279;SDS011;51878;55.748;48.742;2022-08-19T11:12:46;2.03;;;1.80;;
65279;SDS011;51878;55.748;48.742;2022-08-19T11:15:13;10.32;;;1.95;;
65279;SDS011;51878;55.748;48.742;2022-08-19T11:17:41;6.82;;;2.17;;
65279;SDS011;51878;55.748;48.742;2022-08-19T11:20:13;6.82;;;2.00;;
65279;SDS011;51878;55.748;48.742;2022-08-19T11:22:41;7.78;;;1.90;;
65279;SDS011;51878;55.748;48.742;2022-08-19T11:25:10;5.22;;;2.05;;
65279;SDS011;51878;55.748;48.742;2022-08-19T11:27:38;9.95;;;2.03;;
65279;SDS011;51878;55.748;48.742;2022-08-19T11:30:08;4.28;;;2.00;;
65279;SDS011;51878;55.748;48.742;2022-08-19T11:32:37;6.72;;;2.00;;
65279;SDS011;51878;55.748;48.742;2022-08-19T11:35:04;4.78;;;1.80;;
65279;SDS011;51878;55.748;48.742;2022-08-19T11:37:32;4.32;;;1.95;;
65279;SDS011;51878;55.748;48.742;2022-08-19T11:40:05;9.32;;;2.10;;
65279;SDS011;51878;55.748;48.742;2022-08-19T11:42:32;4.80;;;1.70;;
65279;SDS011;51878;55.748;48.742;2022-08-19T11:45:18;10.30;;;1.95;;
65279;SDS011;51878;55.748;48.742;2022-08-19T11:47:45;6.35;;;1.90;;
65279;SDS011;51878;55.748;48.742;2022-08-19T11:50:14;2.83;;;1.65;;
65279;SDS011;51878;55.748;48.742;2022-08-19T11:52:42;4.93;;;1.70;;
65279;SDS011;51878;55.748;48.742;2022-08-19T11:55:12;6.57;;;1.95;;
65279;SDS011;51878;55.748;48.742;2022-08-19T11:57:40;6.32;;;1.70;;
65279;SDS011;51878;55.748;48.742;2022-08-19T12:00:08;6.07;;;1.50;;
65279;SDS011;51878;55.748;48.742;2022-08-19T12:02:55;7.60;;;1.90;;
65279;SDS011;51878;55.748;48.742;2022-08-19T12:05:22;4.95;;;1.70;;
65279;SDS011;51878;55.748;48.742;2022-08-19T12:07:49;2.10;;;1.58;;
65279;SDS011;51878;55.748;48.742;2022-08-19T12:10:16;3.10;;;1.80;;
65279;SDS011;51878;55.748;48.742;2022-08-19T12:12:43;7.88;;;1.80;;
65279;SDS011;51878;55.748;48.742;2022-08-19T12:15:12;8.63;;;1.92;;
65279;SDS011;51878;55.748;48.742;2022-08-19T12:17:41;7.13;;;2.13;;
65279;SDS011;51878;55.748;48.742;2022-08-19T12:20:09;3.53;;;1.38;;
65279;SDS011;51878;55.748;48.742;2022-08-19T12:22:37;4.97;;;1.80;;
65279;SDS011;51878;55.748;48.742;2022-08-19T12:25:05;6.45;;;2.60;;
65279;SDS011;51878;55.748;48.742;2022-08-19T12:27:34;5.18;;;1.60;;
65279;SDS011;51878;55.748;48.742;2022-08-19T12:30:07;4.20;;;1.83;;
65279;SDS011;51878;55.748;48.742;2022-08-19T12:32:37;6.25;;;1.92;;
65279;SDS011;51878;55.748;48.742;2022-08-19T12:35:06;11.23;;;1.75;;
65279;SDS011;51878;55.748;48.742;2022-08-19T12:37:34;6.95;;;1.80;;
65279;SDS011;51878;55.748;48.742;2022-08-19T12:40:02;17.20;;;2.20;;
65279;SDS011;51878;55.748;48.742;2022-08-19T12:42:29;5.32;;;2.10;;
65279;SDS011;51878;55.748;48.742;2022-08-19T12:44:57;2.75;;;1.55;;
65279;SDS011;51878;55.748;48.742;2022-08-19T12:47:24;3.80;;;1.65;;
65279;SDS011;51878;55.748;48.742;2022-08-19T12:49:53;3.30;;;1.55;;
65279;SDS011;51878;55.748;48.742;2022-08-19T12:52:25;7.63;;;1.90;;
65279;SDS011;51878;55.748;48.742;2022-08-19T12:54:54;7.07;;;1.70;;
65279;SDS011;51878;55.748;48.742;2022-08-19T12:57:23;11.25;;;2.88;;
65279;SDS011;51878;55.748;48.742;2022-08-19T12:59:56;5.53;;;1.70;;
65279;SDS011;51878;55.748;48.742;2022-08-19T13:02:26;4.70;;;1.67;;
65279;SDS011;51878;55.748;48.742;2022-08-19T13:04:54;11.10;;;1.67;;
65279;SDS011;51878;55.748;48.742;2022-08-19T13:07:21;9.48;;;2.00;;
65279;SDS011;51878;55.748;48.742;2022-08-19T13:09:50;10.80;;;2.00;;
65279;SDS011;51878;55.748;48.742;2022-08-19T13:12:18;8.20;;;1.75;;
65279;SDS011;51878;55.748;48.742;2022-08-19T13:14:46;3.72;;;1.70;;
65279;SDS011;51878;55.748;48.742;2022-08-19T13:17:16;6.72;;;1.70;;
65279;SDS011;51878;55.748;48.742;2022-08-19T13:19:43;3.42;;;1.70;;
65279;SDS011;51878;55.748;48.742;2022-08-19T13:22:11;3.80;;;1.80;;
65279;SDS011;51878;55.748;48.742;2022-08-19T13:24:40;8.43;;;1.90;;
65279;SDS011;51878;55.748;48.742;2022-08-19T13:27:12;4.05;;;1.50;;
65279;SDS011;51878;55.748;48.742;2022-08-19T13:29:40;9.60;;;1.77;;
65279;SDS011;51878;55.748;48.742;2022-08-19T13:32:28;5.57;;;1.92;;
65279;SDS011;51878;55.748;48.742;2022-08-19T13:35:15;9.65;;;1.73;;
65279;SDS011;51878;55.748;48.742;2022-08-19T13:37:44;4.65;;;1.83;;
65279;SDS011;51878;55.748;48.742;2022-08-19T13:40:29;4.90;;;1.77;;
65279;SDS011;51878;55.748;48.742;2022-08-19T13:42:57;7.10;;;1.80;;
65279;SDS011;51878;55.748;48.742;2022-08-19T13:45:26;4.32;;;1.92;;
65279;SDS011;51878;55.748;48.742;2022-08-19T13:47:57;5.95;;;2.30;;
65279;SDS011;51878;55.748;48.742;2022-08-19T13:50:26;7.38;;;1.88;;
65279;SDS011;51878;55.748;48.742;2022-08-19T13:52:55;2.47;;;1.83;;
65279;SDS011;51878;55.748;48.742;2022-08-19T13:55:23;5.70;;;1.70;;
65279;SDS011;51878;55.748;48.742;2022-08-19T13:57:51;4.80;;;1.60;;
65279;SDS011;51878;55.748;48.742;2022-08-19T14:00:23;6.45;;;1.73;;
65279;SDS011;51878;55.748;48.742;2022-08-19T14:02:53;4.28;;;1.70;;
65279;SDS011;51878;55.748;48.742;2022-08-19T14:05:22;12.05;;;2.00;;
65279;SDS011;51878;55.748;48.742;2022-08-19T14:07:51;4.75;;;1.80;;
65279;SDS011;51878;55.748;48.742;2022-08-19T14:10:19;5.10;;;1.90;;
65279;SDS011;51878;55.748;48.742;2022-08-19T14:12:47;9.32;;;1.83;;
65279;SDS011;51878;55.748;48.742;2022-08-19T14:15:14;9.18;;;2.05;;
65279;SDS011;51878;55.748;48.742;2022-08-19T14:17:42;2.55;;;1.70;;
65279;SDS011;51878;55.748;48.742;2022-08-19T14:20:11;6.55;;;2.30;;
65279;SDS011;51878;55.748;48.742;2022-08-19T14:22:43;10.85;;;1.90;;
65279;SDS011;51878;55.748;48.742;2022-08-19T14:25:13;4.03;;;2.10;;
65279;SDS011;51878;55.748;48.742;2022-08-19T14:27:42;7.90;;;1.73;;
65279;SDS011;51878;55.748;48.742;2022-08-19T14:30:10;3.75;;;1.67;;
65279;SDS011;51878;55.748;48.742;2022-08-19T14:32:41;8.40;;;2.00;;
65279;SDS011;51878;55.748;48.742;2022-08-19T14:35:10;6.10;;;2.00;;
65279;SDS011;51878;55.748;48.742;2022-08-19T14:37:39;8.35;;;2.00;;
65279;SDS011;51878;55.748;48.742;2022-08-19T14:40:11;11.73;;;2.10;;
65279;SDS011;51878;55.748;48.742;2022-08-19T14:42:43;6.25;;;2.10;;
65279;SDS011;51878;55.748;48.742;2022-08-19T14:45:11;7.35;;;2.00;;
65279;SDS011;51878;55.748;48.742;2022-08-19T14:47:38;4.80;;;1.80;;
65279;SDS011;51878;55.748;48.742;2022-08-19T14:50:07;3.33;;;1.80;;
65279;SDS011;51878;55.748;48.742;2022-08-19T14:52:36;5.55;;;1.90;;
65279;SDS011;51878;55.748;48.742;2022-08-19T14:55:03;8.45;;;2.10;;
65279;SDS011;51878;55.748;48.742;2022-08-19T14:57:33;7.50;;;1.92;;
65279;SDS011;51878;55.748;48.742;2022-08-19T15:00:01;5.75;;;1.83;;
65279;SDS011;51878;55.748;48.742;2022-08-19T15:02:30;6.18;;;2.30;;
65279;SDS011;51878;55.748;48.742;2022-08-19T15:05:00;4.55;;;2.88;;
65279;SDS011;51878;55.748;48.742;2022-08-19T15:07:28;6.70;;;2.42;;
65279;SDS011;51878;55.748;48.742;2022-08-19T15:09:56;9.82;;;2.90;;
65279;SDS011;51878;55.748;48.742;2022-08-19T15:12:24;7.57;;;2.60;;
65279;SDS011;51878;55.748;48.742;2022-08-19T15:14:51;9.35;;;2.20;;
65279;SDS011;51878;55.748;48.742;2022-08-19T15:17:21;3.55;;;1.90;;
65279;SDS011;51878;55.748;48.742;2022-08-19T15:20:07;6.30;;;2.00;;
65279;SDS011;51878;55.748;48.742;2022-08-19T15:22:34;9.98;;;2.60;;
65279;SDS011;51878;55.748;48.742;2022-08-19T15:25:03;6.18;;;2.20;;
65279;SDS011;51878;55.748;48.742;2022-08-19T15:27:31;3.05;;;2.08;;